Terminal Aerodrome Forecast
Issued by NWS

Home | Current Version | Previous Version | Text Only | Print | Product List | Glossary On
Versions: 1 2 3 4 5 6 7 8 9 10 11 12 13 14 15 16 17 18 19 20 21 22
000
FTUS44 KSJT 272300
TAFSOA
TAF
KSOA 272326Z 2800/2824 15014G17KT P6SM SCT040 BKN250
     FM280200 15009KT P6SM BKN250
     FM280800 15009KT P6SM OVC015
     FM281100 16008KT P6SM OVC007
     FM281500 17011KT P6SM BKN014
     FM281800 16014G20KT P6SM BKN035=

USA.gov is the U.S. government's official web portal to all federal, state and local government web resources and services.